createdAt,value
2023-04-30T00:01:52.774Z,13.30
2023-04-30T00:04:22.112Z,13.20
2023-04-30T00:06:50.592Z,13.20
2023-04-30T00:09:18.424Z,13.20
2023-04-30T00:11:46.585Z,13.10
2023-04-30T00:14:14.461Z,13.10
2023-04-30T00:16:42.585Z,13.00
2023-04-30T00:19:10.512Z,13.00
2023-04-30T00:21:39.662Z,13.00
2023-04-30T00:24:07.592Z,12.90
2023-04-30T00:26:35.444Z,12.90
2023-04-30T00:29:03.250Z,12.90
2023-04-30T00:31:31.151Z,12.90
2023-04-30T00:33:59.080Z,12.80
2023-04-30T00:36:26.942Z,12.80
2023-04-30T00:38:56.455Z,12.80
2023-04-30T00:41:25.792Z,12.80
2023-04-30T00:43:53.641Z,12.70
2023-04-30T00:46:21.424Z,12.70
2023-04-30T00:48:50.140Z,12.70
2023-04-30T00:51:18.302Z,12.60
2023-04-30T00:53:46.624Z,12.60
2023-04-30T00:56:17.081Z,12.60
2023-04-30T00:58:46.484Z,12.50
2023-04-30T01:01:15.334Z,12.60
2023-04-30T01:03:44.539Z,12.50
2023-04-30T01:06:12.653Z,12.40
2023-04-30T01:08:40.477Z,12.40
2023-04-30T01:11:18.309Z,12.40
2023-04-30T01:13:54.171Z,12.30
2023-04-30T01:16:26.524Z,12.30
2023-04-30T01:18:58.831Z,12.30
2023-04-30T01:21:30.666Z,12.20
2023-04-30T01:24:28.539Z,12.10
2023-04-30T01:27:14.132Z,12.10
2023-04-30T01:29:43.814Z,12.00
2023-04-30T01:32:11.914Z,12.00
2023-04-30T01:34:39.763Z,11.90
2023-04-30T01:37:17.068Z,11.90
2023-04-30T01:39:58.235Z,11.80
2023-04-30T01:42:34.391Z,11.80
2023-04-30T01:45:33.932Z,11.70
2023-04-30T01:48:15.173Z,11.70
2023-04-30T01:50:49.696Z,11.60
2023-04-30T01:53:22.744Z,11.60
2023-04-30T01:55:56.445Z,11.60
2023-04-30T01:58:25.688Z,11.60
2023-04-30T02:00:54.802Z,11.50
2023-04-30T02:03:22.839Z,11.50
2023-04-30T02:05:51.656Z,11.50
2023-04-30T02:08:19.532Z,11.50
2023-04-30T02:10:47.602Z,11.40
2023-04-30T02:13:15.492Z,11.40
2023-04-30T02:15:43.364Z,11.40
2023-04-30T02:18:12.720Z,11.30
2023-04-30T02:20:40.507Z,11.30
2023-04-30T02:23:09.822Z,11.30
2023-04-30T02:25:39.012Z,11.30
2023-04-30T02:28:06.898Z,11.20
2023-04-30T02:30:34.721Z,11.20
2023-04-30T02:33:03.644Z,11.20
2023-04-30T02:35:32.797Z,11.20
2023-04-30T02:38:00.642Z,11.20
2023-04-30T02:40:28.434Z,11.10
2023-04-30T02:42:56.754Z,11.10
2023-04-30T02:45:24.788Z,11.00
2023-04-30T02:47:52.699Z,11.00
2023-04-30T02:50:20.550Z,11.00
2023-04-30T02:52:50.378Z,10.90
2023-04-30T02:55:18.431Z,10.90
2023-04-30T02:57:46.418Z,10.80
2023-04-30T03:00:15.470Z,10.80
2023-04-30T03:02:43.417Z,10.80
2023-04-30T03:05:12.605Z,10.90
2023-04-30T03:07:40.468Z,10.70
2023-04-30T03:10:10.992Z,10.70
2023-04-30T03:12:38.797Z,10.60
2023-04-30T03:15:08.152Z,10.60
2023-04-30T03:17:36.010Z,10.60
2023-04-30T03:20:03.961Z,10.50
2023-04-30T03:22:31.789Z,10.50
2023-04-30T03:24:59.671Z,10.40
2023-04-30T03:27:28.857Z,10.40
2023-04-30T03:29:56.828Z,10.40
2023-04-30T03:32:24.724Z,10.30
2023-04-30T03:34:52.625Z,10.30
2023-04-30T03:37:20.467Z,10.30
2023-04-30T03:39:48.548Z,10.40
2023-04-30T03:42:16.469Z,10.30
2023-04-30T03:44:45.643Z,10.20
2023-04-30T03:47:13.532Z,10.20
2023-04-30T03:49:41.346Z,10.30
2023-04-30T03:52:09.182Z,10.20
2023-04-30T03:54:37.061Z,10.10
2023-04-30T03:57:05.505Z,10.10
2023-04-30T03:59:33.395Z,10.10
2023-04-30T04:02:02.884Z,10.10
2023-04-30T04:04:31.504Z,10.00
2023-04-30T04:06:59.399Z,10.10
2023-04-30T04:09:27.272Z,10.00
2023-04-30T04:11:55.640Z,10.00
2023-04-30T04:14:23.438Z,10.00
2023-04-30T04:16:51.545Z,9.90
2023-04-30T04:19:20.760Z,9.90
2023-04-30T04:21:48.734Z,9.90
2023-04-30T04:24:17.003Z,10.00
2023-04-30T04:26:46.699Z,9.80
2023-04-30T04:29:16.398Z,9.80
2023-04-30T04:31:44.366Z,9.80
2023-04-30T04:34:12.580Z,9.80
2023-04-30T04:36:41.750Z,9.80
2023-04-30T04:39:09.625Z,9.70
2023-04-30T04:41:37.795Z,9.70
2023-04-30T04:44:06.104Z,9.70
2023-04-30T04:46:34.054Z,9.70
2023-04-30T04:49:01.962Z,9.70
2023-04-30T04:51:29.801Z,9.70
2023-04-30T04:53:59.069Z,9.60
2023-04-30T04:56:27.061Z,9.60
2023-04-30T04:58:54.889Z,9.60
2023-04-30T05:01:22.840Z,9.60
2023-04-30T05:03:51.124Z,9.60
2023-04-30T05:06:19.066Z,9.60
2023-04-30T05:08:46.923Z,9.60
2023-04-30T05:11:16.600Z,9.70
2023-04-30T05:13:44.510Z,9.70
2023-04-30T05:16:12.631Z,9.70
2023-04-30T05:18:40.745Z,9.70
2023-04-30T05:21:09.126Z,9.70
2023-04-30T05:23:36.956Z,9.80
2023-04-30T05:26:05.420Z,9.80
2023-04-30T05:28:35.496Z,9.80
2023-04-30T05:31:03.424Z,9.90
2023-04-30T05:33:31.380Z,9.90
2023-04-30T05:35:59.198Z,10.00
2023-04-30T05:38:29.858Z,10.00
2023-04-30T05:40:57.820Z,10.10
2023-04-30T05:43:25.571Z,11.40
2023-04-30T05:45:54.787Z,10.20
2023-04-30T05:48:22.614Z,10.20
2023-04-30T05:50:50.713Z,10.30
2023-04-30T05:53:18.554Z,8.60
2023-04-30T05:55:46.588Z,10.50
2023-04-30T05:58:15.395Z,10.50
2023-04-30T06:00:43.225Z,10.60
2023-04-30T06:03:12.599Z,10.70
2023-04-30T06:05:41.662Z,10.70
2023-04-30T06:08:09.617Z,10.90
2023-04-30T06:10:37.964Z,10.90
2023-04-30T06:13:06.046Z,11.00
2023-04-30T06:15:34.144Z,11.10
2023-04-30T06:18:02.031Z,11.20
2023-04-30T06:20:31.246Z,11.30
2023-04-30T06:23:00.021Z,11.30
2023-04-30T06:25:27.825Z,11.40
2023-04-30T06:27:55.786Z,11.50
2023-04-30T06:30:23.613Z,11.60
2023-04-30T06:32:51.685Z,11.70
2023-04-30T06:35:19.508Z,11.70
2023-04-30T06:37:48.717Z,11.80
2023-04-30T06:40:17.102Z,11.90
2023-04-30T06:42:46.885Z,12.00
2023-04-30T06:45:16.236Z,12.10
2023-04-30T06:47:46.175Z,12.20
2023-04-30T06:50:15.678Z,12.30
2023-04-30T06:52:43.836Z,12.30
2023-04-30T06:55:13.475Z,12.40
2023-04-30T06:57:41.385Z,12.50
2023-04-30T07:00:10.443Z,12.60
2023-04-30T07:02:38.689Z,12.70
2023-04-30T07:05:07.262Z,12.80
2023-04-30T07:07:35.078Z,12.90
2023-04-30T07:10:03.039Z,13.00
2023-04-30T07:12:32.331Z,13.00
2023-04-30T07:15:00.566Z,13.80
2023-04-30T07:17:29.264Z,13.20
2023-04-30T07:19:57.302Z,13.30
2023-04-30T07:22:25.292Z,13.40
2023-04-30T07:24:53.201Z,13.50
2023-04-30T07:27:21.132Z,13.60
2023-04-30T07:29:50.528Z,13.80
2023-04-30T07:32:19.528Z,13.80
2023-04-30T07:34:48.739Z,13.90
2023-04-30T07:37:17.138Z,14.00
2023-04-30T07:39:44.939Z,14.10
2023-04-30T07:42:13.104Z,14.20
2023-04-30T07:44:41.270Z,14.20
2023-04-30T07:47:10.578Z,14.30
2023-04-30T07:49:38.401Z,14.40
2023-04-30T07:52:08.097Z,14.50
2023-04-30T07:54:37.393Z,14.60
2023-04-30T07:57:05.338Z,14.70
2023-04-30T07:59:33.173Z,14.80
2023-04-30T08:02:01.033Z,14.80
2023-04-30T08:04:30.402Z,14.90
2023-04-30T08:07:01.857Z,15.00
2023-04-30T08:09:29.687Z,15.10
2023-04-30T08:11:57.494Z,15.20
2023-04-30T08:14:25.343Z,15.30
2023-04-30T08:16:53.304Z,15.40
2023-04-30T08:19:21.162Z,15.50
2023-04-30T08:21:50.678Z,15.60
2023-04-30T08:24:18.464Z,15.70
2023-04-30T08:26:46.706Z,15.80
2023-04-30T08:29:14.582Z,15.90
2023-04-30T08:31:42.666Z,16.00
2023-04-30T08:34:10.500Z,16.00
2023-04-30T08:36:38.299Z,16.10
2023-04-30T08:39:07.894Z,16.20
2023-04-30T08:41:38.726Z,16.30
2023-04-30T08:44:08.333Z,16.30
2023-04-30T08:46:39.145Z,16.40
2023-04-30T08:49:07.330Z,16.50
2023-04-30T08:51:35.410Z,16.50
2023-04-30T08:54:03.253Z,16.60
2023-04-30T08:56:33.612Z,16.60
2023-04-30T08:59:01.436Z,16.70
2023-04-30T09:01:31.332Z,16.70
2023-04-30T09:03:59.445Z,16.80
2023-04-30T09:06:28.147Z,16.80
2023-04-30T09:08:57.386Z,16.90
2023-04-30T09:11:26.322Z,17.00
2023-04-30T09:13:59.394Z,17.10
2023-04-30T09:16:29.935Z,17.20
2023-04-30T09:18:57.801Z,17.30
2023-04-30T09:21:32.876Z,17.40
2023-04-30T09:24:02.795Z,17.50
2023-04-30T09:26:33.594Z,17.60
2023-04-30T09:29:07.803Z,17.80
2023-04-30T09:31:37.223Z,17.80
2023-04-30T09:34:06.041Z,17.90
2023-04-30T09:36:34.318Z,18.00
2023-04-30T09:39:10.820Z,18.10
2023-04-30T09:41:39.382Z,18.20
2023-04-30T09:44:08.508Z,18.40
2023-04-30T09:46:38.364Z,18.30
2023-04-30T09:49:07.498Z,18.40
2023-04-30T09:51:35.635Z,18.50
2023-04-30T09:54:04.706Z,18.60
2023-04-30T09:56:37.636Z,18.60
2023-04-30T09:59:09.791Z,18.70
2023-04-30T10:01:40.377Z,18.80
2023-04-30T10:04:09.285Z,18.90
2023-04-30T10:06:37.797Z,19.00
2023-04-30T10:09:07.819Z,19.10
2023-04-30T10:11:38.578Z,19.20
2023-04-30T10:14:12.741Z,19.30
2023-04-30T10:16:44.754Z,19.40
2023-04-30T10:19:16.862Z,19.50
2023-04-30T10:21:47.956Z,19.50
2023-04-30T10:24:19.435Z,19.60
2023-04-30T10:26:48.932Z,19.70
2023-04-30T10:29:19.904Z,19.70
2023-04-30T10:31:50.016Z,19.80
2023-04-30T10:34:26.984Z,19.90
2023-04-30T10:36:59.025Z,20.00
2023-04-30T10:39:28.839Z,20.10
2023-04-30T10:42:03.450Z,20.10
2023-04-30T10:44:35.962Z,20.10
2023-04-30T10:47:05.108Z,20.20
2023-04-30T10:49:33.399Z,20.30
2023-04-30T10:52:02.287Z,20.30
2023-04-30T10:54:31.906Z,20.40
2023-04-30T10:57:14.149Z,20.50
2023-04-30T10:59:53.784Z,20.60
2023-04-30T11:02:21.856Z,20.70
2023-04-30T11:05:13.423Z,20.80
2023-04-30T11:07:52.498Z,20.80
2023-04-30T11:10:23.823Z,20.90
2023-04-30T11:12:52.698Z,21.00
2023-04-30T11:15:25.339Z,21.00
2023-04-30T11:17:57.146Z,21.10
2023-04-30T11:20:26.512Z,21.20
2023-04-30T11:23:09.813Z,21.20
2023-04-30T11:25:42.366Z,21.30
2023-04-30T11:28:14.179Z,21.40
2023-04-30T11:30:51.139Z,21.40
2023-04-30T11:33:19.892Z,21.50
2023-04-30T11:35:50.045Z,21.60
2023-04-30T11:38:19.308Z,21.70
2023-04-30T11:40:50.031Z,21.80
2023-04-30T11:43:24.907Z,21.80
2023-04-30T11:46:08.841Z,21.90
2023-04-30T11:48:37.911Z,21.90
2023-04-30T11:51:07.614Z,22.00
2023-04-30T11:53:35.448Z,22.10
2023-04-30T11:56:07.125Z,22.10
2023-04-30T11:58:37.812Z,22.20
2023-04-30T12:01:09.484Z,22.20
2023-04-30T12:03:43.033Z,22.30
2023-04-30T12:06:12.815Z,22.40
2023-04-30T12:08:42.873Z,22.40
2023-04-30T12:11:21.725Z,22.50
2023-04-30T12:13:53.924Z,22.50
2023-04-30T12:16:24.327Z,22.60
2023-04-30T12:18:52.977Z,22.70
2023-04-30T12:21:22.835Z,22.80
2023-04-30T12:23:51.256Z,22.80
2023-04-30T12:26:19.205Z,22.90
2023-04-30T12:28:49.728Z,22.90
2023-04-30T12:31:19.122Z,23.00
2023-04-30T12:33:56.837Z,22.90
2023-04-30T12:36:32.596Z,23.00
2023-04-30T12:39:08.782Z,23.00
2023-04-30T12:41:42.435Z,23.10
2023-04-30T12:44:21.090Z,23.20
2023-04-30T12:46:50.431Z,23.20
2023-04-30T12:49:27.618Z,23.30
2023-04-30T12:52:01.054Z,23.40
2023-04-30T12:54:30.038Z,23.40
2023-04-30T12:57:00.240Z,23.40
2023-04-30T12:59:28.393Z,23.50
2023-04-30T13:01:56.631Z,23.50
2023-04-30T13:04:25.931Z,23.50
2023-04-30T13:06:54.102Z,23.50
2023-04-30T13:09:22.187Z,23.50
2023-04-30T13:11:51.278Z,23.50
2023-04-30T13:14:19.304Z,23.50
2023-04-30T13:16:47.779Z,23.50
2023-04-30T13:19:16.080Z,23.50
2023-04-30T13:21:45.176Z,23.50
2023-04-30T13:24:13.158Z,23.50
2023-04-30T13:26:41.088Z,23.60
2023-04-30T13:29:08.961Z,23.60
2023-04-30T13:31:37.175Z,23.70
2023-04-30T13:34:05.044Z,23.70
2023-04-30T13:36:32.998Z,23.70
2023-04-30T13:39:02.260Z,23.70
2023-04-30T13:41:30.044Z,23.70
2023-04-30T13:43:58.581Z,23.80
2023-04-30T13:46:26.648Z,23.70
2023-04-30T13:48:54.484Z,23.70
2023-04-30T13:51:22.300Z,23.90
2023-04-30T13:53:50.888Z,23.90
2023-04-30T13:56:21.105Z,23.90
2023-04-30T13:58:49.696Z,24.20
2023-04-30T14:01:17.946Z,24.00
2023-04-30T14:03:46.538Z,24.00
2023-04-30T14:06:15.418Z,24.10
2023-04-30T14:08:43.498Z,24.20
2023-04-30T14:11:12.099Z,24.20
2023-04-30T14:13:41.397Z,24.40
2023-04-30T14:16:09.782Z,24.10
2023-04-30T14:18:38.076Z,24.10
2023-04-30T14:21:06.310Z,24.00
2023-04-30T14:23:34.315Z,23.90
2023-04-30T14:26:02.509Z,23.80
2023-04-30T14:28:30.484Z,23.80
2023-04-30T14:30:59.677Z,23.70
2023-04-30T14:33:27.552Z,23.70
2023-04-30T14:35:55.617Z,23.70
2023-04-30T14:38:23.450Z,23.80
2023-04-30T14:40:51.350Z,23.90
2023-04-30T14:43:19.360Z,24.10
2023-04-30T14:45:47.949Z,24.40
2023-04-30T14:48:17.969Z,24.60
2023-04-30T14:50:46.359Z,24.90
2023-04-30T14:53:14.253Z,25.10
2023-04-30T14:55:42.519Z,25.40
2023-04-30T14:58:10.591Z,25.70
2023-04-30T15:00:38.414Z,25.90
2023-04-30T15:03:06.611Z,26.00
2023-04-30T15:05:36.440Z,26.10
2023-04-30T15:08:04.477Z,26.10
2023-04-30T15:10:32.314Z,26.00
2023-04-30T15:13:00.175Z,25.80
2023-04-30T15:15:29.606Z,25.70
2023-04-30T15:17:58.091Z,25.60
2023-04-30T15:20:26.257Z,25.60
2023-04-30T15:22:55.430Z,25.60
2023-04-30T15:25:24.028Z,25.70
2023-04-30T15:27:52.993Z,25.80
2023-04-30T15:30:22.508Z,26.00
2023-04-30T15:32:50.891Z,26.20
2023-04-30T15:35:18.945Z,26.30
2023-04-30T15:37:47.091Z,26.40
2023-04-30T15:40:16.588Z,26.40
2023-04-30T15:42:44.791Z,26.40
2023-04-30T15:45:12.781Z,26.30
2023-04-30T15:47:41.246Z,26.20
2023-04-30T15:50:10.234Z,26.10
2023-04-30T15:52:40.086Z,26.10
2023-04-30T15:55:09.270Z,26.30
2023-04-30T15:57:38.458Z,26.40
2023-04-30T16:00:07.845Z,26.60
2023-04-30T16:02:35.963Z,26.90
2023-04-30T16:05:04.230Z,27.20
2023-04-30T16:07:32.604Z,27.50
2023-04-30T16:10:01.616Z,27.60
2023-04-30T16:12:29.478Z,27.80
2023-04-30T16:14:58.694Z,27.90
2023-04-30T16:17:26.745Z,27.80
2023-04-30T16:19:54.981Z,27.60
2023-04-30T16:22:24.374Z,27.50
2023-04-30T16:24:52.339Z,27.10
2023-04-30T16:27:20.139Z,26.80
2023-04-30T16:29:47.965Z,26.60
2023-04-30T16:32:18.273Z,26.40
2023-04-30T16:34:46.143Z,26.20
2023-04-30T16:37:16.124Z,26.00
2023-04-30T16:39:44.043Z,25.80
2023-04-30T16:42:12.239Z,25.60
2023-04-30T16:44:40.144Z,25.40
2023-04-30T16:47:08.966Z,25.20
2023-04-30T16:49:38.178Z,25.00
2023-04-30T16:52:06.437Z,24.80
2023-04-30T16:54:34.309Z,24.60
2023-04-30T16:57:04.553Z,24.40
2023-04-30T16:59:32.380Z,24.30
2023-04-30T17:02:01.955Z,24.20
2023-04-30T17:04:29.789Z,24.00
2023-04-30T17:06:59.141Z,23.90
2023-04-30T17:09:26.936Z,23.80
2023-04-30T17:11:54.771Z,23.70
2023-04-30T17:14:23.051Z,23.50
2023-04-30T17:16:51.322Z,23.50
2023-04-30T17:19:19.328Z,23.40
2023-04-30T17:21:47.592Z,23.30
2023-04-30T17:24:17.236Z,23.20
2023-04-30T17:26:45.010Z,23.00
2023-04-30T17:29:13.714Z,22.90
2023-04-30T17:31:41.858Z,22.90
2023-04-30T17:34:10.750Z,22.80
2023-04-30T17:36:38.701Z,22.80
2023-04-30T17:39:06.517Z,22.80
2023-04-30T17:41:35.661Z,22.70
2023-04-30T17:44:03.520Z,22.70
2023-04-30T17:46:31.442Z,22.70
2023-04-30T17:49:01.523Z,22.60
2023-04-30T17:51:31.521Z,22.50
2023-04-30T17:53:59.967Z,22.50
2023-04-30T17:56:29.972Z,22.40
2023-04-30T17:58:59.882Z,22.30
2023-04-30T18:01:27.899Z,22.30
2023-04-30T18:03:55.886Z,22.20
2023-04-30T18:06:23.904Z,22.20
2023-04-30T18:08:51.777Z,22.10
2023-04-30T18:11:19.984Z,22.10
2023-04-30T18:13:47.909Z,22.00
2023-04-30T18:16:17.686Z,21.90
2023-04-30T18:18:46.121Z,21.80
2023-04-30T18:21:14.791Z,21.80
2023-04-30T18:23:42.715Z,21.80
2023-04-30T18:26:11.261Z,21.60
2023-04-30T18:28:39.171Z,21.60
2023-04-30T18:31:07.082Z,21.50
2023-04-30T18:33:36.304Z,21.50
2023-04-30T18:36:05.999Z,21.40
2023-04-30T18:38:33.866Z,21.30
2023-04-30T18:41:02.258Z,21.20
2023-04-30T18:43:30.322Z,21.20
2023-04-30T18:45:58.469Z,21.10
2023-04-30T18:48:26.659Z,21.00
2023-04-30T18:50:55.864Z,20.90
2023-04-30T18:53:25.052Z,20.90
2023-04-30T18:55:53.547Z,20.80
2023-04-30T18:58:22.213Z,20.70
2023-04-30T19:00:50.922Z,20.70
2023-04-30T19:03:18.946Z,20.60
2023-04-30T19:05:47.826Z,20.50
2023-04-30T19:08:18.013Z,20.50
2023-04-30T19:10:48.878Z,20.40
2023-04-30T19:13:17.029Z,20.40
2023-04-30T19:15:46.064Z,20.30
2023-04-30T19:18:14.210Z,20.30
2023-04-30T19:20:42.839Z,20.30
2023-04-30T19:23:10.849Z,20.20
2023-04-30T19:25:41.064Z,20.20
2023-04-30T19:28:09.893Z,20.20
2023-04-30T19:30:38.008Z,20.10
2023-04-30T19:33:05.960Z,20.10
2023-04-30T19:35:35.826Z,20.10
2023-04-30T19:38:03.689Z,20.10
2023-04-30T19:40:31.543Z,20.00
2023-04-30T19:43:00.805Z,20.00
2023-04-30T19:45:28.674Z,19.90
2023-04-30T19:47:56.643Z,19.90
2023-04-30T19:50:24.703Z,19.90
2023-04-30T19:52:52.492Z,19.90
2023-04-30T19:55:20.713Z,19.80
2023-04-30T19:57:48.982Z,19.50
2023-04-30T20:00:18.505Z,19.70
2023-04-30T20:02:47.926Z,19.70
2023-04-30T20:05:16.652Z,19.60
2023-04-30T20:07:44.477Z,19.60
2023-04-30T20:10:12.746Z,19.60
2023-04-30T20:12:40.842Z,19.50
2023-04-30T20:15:09.522Z,19.50
2023-04-30T20:17:38.819Z,19.50
2023-04-30T20:20:07.930Z,19.40
2023-04-30T20:22:35.752Z,19.40
2023-04-30T20:25:03.809Z,19.40
2023-04-30T20:27:31.592Z,19.30
2023-04-30T20:29:59.373Z,19.30
2023-04-30T20:32:27.278Z,19.20
2023-04-30T20:34:56.740Z,19.20
2023-04-30T20:37:24.886Z,19.10
2023-04-30T20:39:52.852Z,19.10
2023-04-30T20:42:20.846Z,19.00
2023-04-30T20:44:48.942Z,19.00
2023-04-30T20:47:17.109Z,19.00
2023-04-30T20:49:45.549Z,18.90
2023-04-30T20:52:15.881Z,18.80
2023-04-30T20:54:43.716Z,18.80
2023-04-30T20:57:11.652Z,18.50
2023-04-30T20:59:39.606Z,18.50
2023-04-30T21:02:07.561Z,18.50
2023-04-30T21:04:35.522Z,18.40
2023-04-30T21:07:03.499Z,18.40
2023-04-30T21:09:35.127Z,18.40
2023-04-30T21:12:04.361Z,18.30
2023-04-30T21:14:32.470Z,18.30
2023-04-30T21:17:00.685Z,18.20
2023-04-30T21:19:28.615Z,18.90
2023-04-30T21:21:57.254Z,18.20
2023-04-30T21:24:25.082Z,18.10
2023-04-30T21:26:54.776Z,18.00
2023-04-30T21:29:24.114Z,18.00
2023-04-30T21:31:52.274Z,17.90
2023-04-30T21:34:20.104Z,17.80
2023-04-30T21:36:48.827Z,17.70
2023-04-30T21:39:17.468Z,17.70
2023-04-30T21:41:45.529Z,17.60
2023-04-30T21:44:14.735Z,17.60
2023-04-30T21:46:42.693Z,17.50
2023-04-30T21:49:11.705Z,17.50
2023-04-30T21:51:39.665Z,17.50
2023-04-30T21:54:07.517Z,17.30
2023-04-30T21:56:35.457Z,17.30
2023-04-30T21:59:03.294Z,17.20
2023-04-30T22:01:32.534Z,17.20
2023-04-30T22:04:00.515Z,17.10
2023-04-30T22:06:28.572Z,17.10
2023-04-30T22:08:56.561Z,17.00
2023-04-30T22:11:25.169Z,17.00
2023-04-30T22:13:52.982Z,16.90
2023-04-30T22:16:20.962Z,16.90
2023-04-30T22:18:50.431Z,16.80
2023-04-30T22:21:18.386Z,16.80
2023-04-30T22:23:48.305Z,16.70
2023-04-30T22:26:16.802Z,16.70
2023-04-30T22:28:44.702Z,16.60
2023-04-30T22:31:12.843Z,16.60
2023-04-30T22:33:40.729Z,16.60
2023-04-30T22:36:10.598Z,16.50
2023-04-30T22:38:38.428Z,16.40
2023-04-30T22:41:06.619Z,16.40
2023-04-30T22:43:35.016Z,16.30
2023-04-30T22:46:03.351Z,16.30
2023-04-30T22:48:31.323Z,16.20
2023-04-30T22:50:59.485Z,16.20
2023-04-30T22:53:29.740Z,16.10
2023-04-30T22:55:57.646Z,16.10
2023-04-30T22:58:25.427Z,16.10
2023-04-30T23:00:53.424Z,16.00
2023-04-30T23:03:21.320Z,16.00
2023-04-30T23:05:51.457Z,16.00
2023-04-30T23:08:19.335Z,15.90
2023-04-30T23:10:49.312Z,15.90
2023-04-30T23:13:18.698Z,15.80
2023-04-30T23:15:47.699Z,15.80
2023-04-30T23:18:15.686Z,16.00
2023-04-30T23:20:43.464Z,15.70
2023-04-30T23:23:11.750Z,15.60
2023-04-30T23:25:39.584Z,15.60
2023-04-30T23:28:08.809Z,15.50
2023-04-30T23:30:39.062Z,15.40
2023-04-30T23:33:06.956Z,15.40
2023-04-30T23:35:34.864Z,15.30
2023-04-30T23:38:02.665Z,15.30
2023-04-30T23:40:30.580Z,15.20
2023-04-30T23:42:58.445Z,15.10
2023-04-30T23:45:27.625Z,15.10
2023-04-30T23:47:55.527Z,15.00
2023-04-30T23:50:23.449Z,14.90
2023-04-30T23:52:51.815Z,14.90
2023-04-30T23:55:20.536Z,14.90
2023-04-30T23:57:48.682Z,14.80
